Time,TemperatureF,DewpointF,PressureIn,WindDirection,WindDirectionDegrees,WindSpeedMPH,WindSpeedGustMPH,Humidity,HourlyPrecipIn,Conditions,Clouds,dailyrainin,SoftwareType,DateUTC
2013-03-19 00:04:00,48.4,46.2,29.91,NW,315,3.2,-999.0,92,-99.99,,,0.00,Acu-Link.com,2013-03-19 07:04:00,
2013-03-19 00:19:00,48.4,46.2,29.91,NE,45,0.0,-999.0,92,-99.99,,,0.00,Acu-Link.com,2013-03-19 07:19:00,
2013-03-19 00:34:00,48.2,46.0,29.91,WNW,292,1.7,-999.0,92,-99.99,,,0.00,Acu-Link.com,2013-03-19 07:34:00,
2013-03-19 00:49:00,48.2,46.0,29.91,WSW,247,0.0,-999.0,92,-99.99,,,0.00,Acu-Link.com,2013-03-19 07:49:00,
2013-03-19 01:05:00,48.0,45.8,29.91,ESE,112,0.0,-999.0,92,-99.99,,,0.00,Acu-Link.com,2013-03-19 08:05:00,
2013-03-19 01:20:00,48.2,46.0,29.91,NE,45,0.0,-999.0,92,-99.99,,,0.00,Acu-Link.com,2013-03-19 08:20:00,
2013-03-19 01:35:00,48.6,46.1,29.91,NW,315,0.0,-999.0,91,-99.99,,,0.00,Acu-Link.com,2013-03-19 08:35:00,
2013-03-19 01:50:00,48.9,45.8,29.91,East,90,0.0,-999.0,89,-99.99,,,0.00,Acu-Link.com,2013-03-19 08:50:00,
2013-03-19 02:06:00,48.9,45.8,29.90,ESE,112,0.0,-999.0,89,-99.99,,,0.00,Acu-Link.com,2013-03-19 09:06:00,
2013-03-19 02:21:00,48.9,45.8,29.90,NW,315,0.0,-999.0,89,-99.99,,,0.00,Acu-Link.com,2013-03-19 09:21:00,
2013-03-19 02:36:00,49.1,45.7,29.90,SE,135,0.0,-999.0,88,-99.99,,,0.00,Acu-Link.com,2013-03-19 09:36:00,
2013-03-19 02:52:00,49.1,46.0,29.90,North,0,0.0,-999.0,89,-99.99,,,0.00,Acu-Link.com,2013-03-19 09:52:00,
2013-03-19 03:07:00,49.1,46.0,29.90,North,0,0.0,-999.0,89,-99.99,,,0.00,Acu-Link.com,2013-03-19 10:07:00,
2013-03-19 03:22:00,49.1,46.0,29.89,North,0,0.0,-999.0,89,-99.99,,,0.00,Acu-Link.com,2013-03-19 10:22:00,
2013-03-19 03:37:00,49.1,46.0,29.89,NW,315,0.0,-999.0,89,-99.99,,,0.00,Acu-Link.com,2013-03-19 10:37:00,
2013-03-19 04:08:00,49.1,46.0,29.88,East,90,0.0,-999.0,89,-99.99,,,0.00,Acu-Link.com,2013-03-19 11:08:00,
2013-03-19 04:23:00,48.7,45.6,29.87,WNW,292,0.0,-999.0,89,-99.99,,,0.00,Acu-Link.com,2013-03-19 11:23:00,
2013-03-19 04:39:00,48.2,45.4,29.87,North,0,0.0,-999.0,90,-99.99,,,0.00,Acu-Link.com,2013-03-19 11:39:00,
2013-03-19 04:54:00,48.0,45.2,29.87,ESE,112,0.0,-999.0,90,-99.99,,,0.00,Acu-Link.com,2013-03-19 11:54:00,
2013-03-19 05:09:00,47.3,44.8,29.88,ESE,112,0.0,-999.0,91,-99.99,,,0.00,Acu-Link.com,2013-03-19 12:09:00,
2013-03-19 05:25:00,46.8,44.9,29.88,NW,315,0.0,-999.0,93,-99.99,,,0.00,Acu-Link.com,2013-03-19 12:25:00,
2013-03-19 05:40:00,46.6,45.0,29.88,ESE,112,0.0,-999.0,94,-99.99,,,0.00,Acu-Link.com,2013-03-19 12:40:00,
2013-03-19 05:55:00,46.4,44.8,29.89,SW,225,0.0,-999.0,94,-99.99,,,0.00,Acu-Link.com,2013-03-19 12:55:00,
2013-03-19 06:41:00,45.1,43.2,29.90,SSW,202,0.0,-999.0,93,-99.99,,,0.00,Acu-Link.com,2013-03-19 13:41:00,
2013-03-19 06:57:00,45.0,43.7,29.90,East,90,0.0,-999.0,95,-99.99,,,0.00,Acu-Link.com,2013-03-19 13:57:00,
2013-03-19 07:12:00,45.0,43.7,29.90,East,90,0.0,-999.0,95,-99.99,,,0.00,Acu-Link.com,2013-03-19 14:12:00,
2013-03-19 07:27:00,45.0,43.9,29.90,East,90,0.0,-999.0,96,-99.99,,,0.00,Acu-Link.com,2013-03-19 14:27:00,
2013-03-19 07:43:00,45.1,44.3,29.91,East,90,0.0,-999.0,97,-99.99,,,0.00,Acu-Link.com,2013-03-19 14:43:00,
2013-03-19 07:58:00,45.9,45.4,29.91,NE,45,0.0,-999.0,98,-99.99,,,0.00,Acu-Link.com,2013-03-19 14:58:00,
2013-03-19 08:13:00,47.7,47.4,29.91,WNW,292,0.0,-999.0,99,-99.99,,,0.00,Acu-Link.com,2013-03-19 15:13:00,
2013-03-19 08:28:00,50.4,50.1,29.91,ESE,112,0.0,-999.0,99,-99.99,,,0.00,Acu-Link.com,2013-03-19 15:28:00,
2013-03-19 08:44:00,54.5,48.8,29.91,East,90,0.0,-999.0,81,-99.99,,,0.00,Acu-Link.com,2013-03-19 15:44:00,
2013-03-19 08:59:00,56.7,49.2,29.91,ESE,112,2.2,-999.0,76,-99.99,,,0.00,Acu-Link.com,2013-03-19 15:59:00,
2013-03-19 09:14:00,57.4,49.2,29.91,South,180,2.7,-999.0,74,-99.99,,,0.00,Acu-Link.com,2013-03-19 16:14:00,
2013-03-19 09:30:00,58.8,49.8,29.92,ESE,112,0.0,-999.0,72,-99.99,,,0.00,Acu-Link.com,2013-03-19 16:30:00,
2013-03-19 09:45:00,57.0,49.2,29.93,WNW,292,0.0,-999.0,75,-99.99,,,0.00,Acu-Link.com,2013-03-19 16:45:00,
2013-03-19 10:00:00,57.6,48.6,29.92,SE,135,2.2,-999.0,72,-99.99,,,0.00,Acu-Link.com,2013-03-19 17:00:00,
2013-03-19 10:16:00,59.2,47.8,29.92,West,270,0.0,-999.0,66,-99.99,,,0.00,Acu-Link.com,2013-03-19 17:16:00,
2013-03-19 10:46:00,61.5,45.7,29.92,ESE,112,3.7,-999.0,56,-99.99,,,0.00,Acu-Link.com,2013-03-19 17:46:00,
2013-03-19 11:01:00,61.9,48.3,29.91,NE,45,3.7,-999.0,61,-99.99,,,0.00,Acu-Link.com,2013-03-19 18:01:00,
2013-03-19 11:17:00,62.8,47.8,29.91,South,180,0.0,-999.0,58,-99.99,,,0.00,Acu-Link.com,2013-03-19 18:17:00,
2013-03-19 11:32:00,63.7,48.6,29.92,SSW,202,0.0,-999.0,58,-99.99,,,0.00,Acu-Link.com,2013-03-19 18:32:00,
2013-03-19 11:47:00,64.2,48.6,29.92,NNE,22,2.7,-999.0,57,-99.99,,,0.00,Acu-Link.com,2013-03-19 18:47:00,
2013-03-19 12:03:00,65.7,47.6,29.91,West,270,0.0,-999.0,52,-99.99,,,0.00,Acu-Link.com,2013-03-19 19:03:00,
2013-03-19 12:18:00,66.7,46.9,29.92,NNE,22,0.0,-999.0,49,-99.99,,,0.00,Acu-Link.com,2013-03-19 19:18:00,
2013-03-19 12:33:00,66.6,43.4,29.91,ESE,112,1.1,-999.0,43,-99.99,,,0.00,Acu-Link.com,2013-03-19 19:33:00,
2013-03-19 12:49:00,65.8,40.2,29.92,WNW,292,5.8,-999.0,39,-99.99,,,0.00,Acu-Link.com,2013-03-19 19:49:00,
2013-03-19 13:04:00,64.2,41.2,29.92,North,0,6.3,-999.0,43,-99.99,,,0.00,Acu-Link.com,2013-03-19 20:04:00,
2013-03-19 13:19:00,63.7,44.2,29.92,South,180,4.2,-999.0,49,-99.99,,,0.00,Acu-Link.com,2013-03-19 20:19:00,
2013-03-19 13:34:00,63.7,45.2,29.92,WNW,292,4.2,-999.0,51,-99.99,,,0.00,Acu-Link.com,2013-03-19 20:34:00,
2013-03-19 13:49:00,61.7,44.9,29.91,WSW,247,2.2,-999.0,54,-99.99,,,0.00,Acu-Link.com,2013-03-19 20:49:00,
2013-03-19 14:04:00,61.0,44.2,29.91,West,270,4.7,-999.0,54,-99.99,,,0.00,Acu-Link.com,2013-03-19 21:04:00,
2013-03-19 14:20:00,61.9,43.1,29.91,WNW,292,2.7,-999.0,50,-99.99,,,0.00,Acu-Link.com,2013-03-19 21:20:00,
2013-03-19 14:35:00,61.7,41.8,29.91,WNW,292,2.2,-999.0,48,-99.99,,,0.00,Acu-Link.com,2013-03-19 21:35:00,
2013-03-19 14:50:00,60.8,42.0,29.90,WNW,292,4.2,-999.0,50,-99.99,,,0.00,Acu-Link.com,2013-03-19 21:50:00,
2013-03-19 15:06:00,61.3,42.5,29.90,West,270,0.0,-999.0,50,-99.99,,,0.00,Acu-Link.com,2013-03-19 22:06:00,
2013-03-19 15:36:00,60.3,40.5,29.91,ENE,67,2.2,-999.0,48,-99.99,,,0.00,Acu-Link.com,2013-03-19 22:36:00,
2013-03-19 15:51:00,59.5,40.8,29.91,WSW,247,4.2,-999.0,50,-99.99,,,0.00,Acu-Link.com,2013-03-19 22:51:00,
2013-03-19 16:07:00,59.0,40.4,29.91,NW,315,2.2,-999.0,50,-99.99,,,0.00,Acu-Link.com,2013-03-19 23:07:00,
2013-03-19 16:22:00,59.0,42.4,29.91,West,270,0.0,-999.0,54,-99.99,,,0.00,Acu-Link.com,2013-03-19 23:22:00,
2013-03-19 16:37:00,58.6,40.5,29.91,West,270,1.7,-999.0,51,-99.99,,,0.00,Acu-Link.com,2013-03-19 23:37:00,
2013-03-19 16:52:00,57.9,40.4,29.93,West,270,5.8,-999.0,52,-99.99,,,0.00,Acu-Link.com,2013-03-19 23:52:00,
2013-03-19 17:07:00,56.3,43.4,29.93,West,270,5.8,-999.0,62,-99.99,,,0.00,Acu-Link.com,2013-03-20 00:07:00,
2013-03-19 17:23:00,55.9,42.2,29.93,West,270,6.3,-999.0,60,-99.99,,,0.00,Acu-Link.com,2013-03-20 00:23:00,
2013-03-19 17:38:00,56.1,42.0,29.93,SE,135,2.7,-999.0,59,-99.99,,,0.00,Acu-Link.com,2013-03-20 00:38:00,
2013-03-19 17:53:00,55.0,45.8,29.94,West,270,5.8,-999.0,71,-99.99,,,0.00,Acu-Link.com,2013-03-20 00:53:00,
2013-03-19 18:09:00,55.0,43.5,29.93,ESE,112,1.1,-999.0,65,-99.99,,,0.00,Acu-Link.com,2013-03-20 01:09:00,
2013-03-19 18:24:00,54.1,44.2,29.95,West,270,4.2,-999.0,69,-99.99,,,0.00,Acu-Link.com,2013-03-20 01:24:00,
2013-03-19 18:39:00,52.2,45.9,29.95,WNW,292,6.3,-999.0,79,-99.99,,,0.01,Acu-Link.com,2013-03-20 01:39:00,
2013-03-19 18:54:00,50.9,45.3,29.95,NW,315,0.0,-999.0,81,-99.99,,,0.04,Acu-Link.com,2013-03-20 01:54:00,
2013-03-19 19:10:00,50.2,44.9,29.94,SW,225,0.0,-999.0,82,-99.99,,,0.04,Acu-Link.com,2013-03-20 02:10:00,
2013-03-19 19:25:00,50.0,45.7,29.94,SE,135,0.0,-999.0,85,-99.99,,,0.05,Acu-Link.com,2013-03-20 02:25:00,
2013-03-19 19:40:00,49.8,45.5,29.94,East,90,0.0,-999.0,85,-99.99,,,0.05,Acu-Link.com,2013-03-20 02:40:00,
2013-03-19 19:55:00,49.6,45.6,29.94,NE,45,0.0,-999.0,86,-99.99,,,0.06,Acu-Link.com,2013-03-20 02:55:00,
2013-03-19 20:41:00,49.1,45.1,29.93,ESE,112,0.0,-999.0,86,-99.99,,,0.06,Acu-Link.com,2013-03-20 03:41:00,
2013-03-19 20:57:00,48.9,44.9,29.92,SE,135,2.7,-999.0,86,-99.99,,,0.06,Acu-Link.com,2013-03-20 03:57:00,
2013-03-19 21:12:00,49.1,44.2,29.92,SSE,157,4.2,-999.0,83,-99.99,,,0.06,Acu-Link.com,2013-03-20 04:12:00,
2013-03-19 21:27:00,49.1,43.8,29.91,ENE,67,3.2,-999.0,82,-99.99,,,0.06,Acu-Link.com,2013-03-20 04:27:00,
2013-03-19 21:43:00,49.1,44.2,29.92,West,270,0.0,-999.0,83,-99.99,,,0.06,Acu-Link.com,2013-03-20 04:43:00,
2013-03-19 21:58:00,49.1,43.5,29.91,ENE,67,0.0,-999.0,81,-99.99,,,0.06,Acu-Link.com,2013-03-20 04:58:00,
2013-03-19 22:13:00,49.1,43.5,29.91,WNW,292,0.0,-999.0,81,-99.99,,,0.06,Acu-Link.com,2013-03-20 05:13:00,
2013-03-19 22:28:00,48.9,43.7,29.90,SE,135,0.0,-999.0,82,-99.99,,,0.06,Acu-Link.com,2013-03-20 05:28:00,
2013-03-19 22:43:00,48.9,43.7,29.91,ENE,67,0.0,-999.0,82,-99.99,,,0.06,Acu-Link.com,2013-03-20 05:43:00,
2013-03-19 22:59:00,48.7,43.5,29.91,ESE,112,2.2,-999.0,82,-99.99,,,0.06,Acu-Link.com,2013-03-20 05:59:00,
2013-03-19 23:14:00,49.1,43.8,29.91,ENE,67,1.7,-999.0,82,-99.99,,,0.06,Acu-Link.com,2013-03-20 06:14:00,
2013-03-19 23:29:00,49.3,44.4,29.91,NW,315,0.0,-999.0,83,-99.99,,,0.06,Acu-Link.com,2013-03-20 06:29:00,
2013-03-19 23:45:00,49.5,45.2,29.90,SE,135,0.0,-999.0,85,-99.99,,,0.06,Acu-Link.com,2013-03-20 06:45:00,